createdAt,value
2022-08-22T00:02:20.541Z,17.38
2022-08-22T00:02:59.524Z,18.45
2022-08-22T00:03:10.197Z,17.43
2022-08-22T00:05:27.195Z,17.39
2022-08-22T00:08:12.459Z,17.44
2022-08-22T00:10:45.287Z,17.46
2022-08-22T00:13:43.658Z,17.45
2022-08-22T00:16:25.733Z,17.41
2022-08-22T00:19:17.664Z,17.35
2022-08-22T00:22:02.758Z,17.31
2022-08-22T00:25:01.720Z,17.28
2022-08-22T00:27:46.320Z,17.26
2022-08-22T00:30:18.922Z,17.26
2022-08-22T00:33:06.190Z,17.25
2022-08-22T00:35:44.515Z,17.24
2022-08-22T00:38:18.255Z,17.23
2022-08-22T00:40:59.996Z,17.20
2022-08-22T00:43:47.807Z,17.18
2022-08-22T00:46:21.945Z,17.17
2022-08-22T00:48:58.437Z,17.14
2022-08-22T00:51:46.979Z,17.11
2022-08-22T00:54:40.979Z,17.12
2022-08-22T00:57:45.245Z,17.08
2022-08-22T01:00:25.144Z,17.02
2022-08-22T01:03:06.808Z,16.99
2022-08-22T01:06:07.060Z,16.99
2022-08-22T01:09:07.232Z,16.99
2022-08-22T01:12:01.283Z,16.98
2022-08-22T01:14:39.876Z,16.95
2022-08-22T01:17:48.287Z,16.91
2022-08-22T01:20:38.713Z,16.88
2022-08-22T01:23:35.535Z,16.86
2022-08-22T01:26:55.874Z,16.84
2022-08-22T01:30:22.682Z,16.82
2022-08-22T01:33:04.945Z,16.79
2022-08-22T01:35:38.425Z,16.76
2022-08-22T01:38:25.754Z,16.75
2022-08-22T01:41:26.053Z,16.72
2022-08-22T01:44:00.227Z,16.69
2022-08-22T01:46:45.420Z,16.66
2022-08-22T01:49:23.264Z,16.63
2022-08-22T01:52:30.526Z,16.60
2022-08-22T01:55:07.109Z,16.56
2022-08-22T01:58:02.417Z,16.54
2022-08-22T02:01:15.080Z,16.50
2022-08-22T02:04:04.262Z,16.44
2022-08-22T02:06:52.700Z,16.41
2022-08-22T02:09:51.809Z,16.38
2022-08-22T02:12:48.960Z,16.33
2022-08-22T02:15:23.901Z,16.31
2022-08-22T02:18:12.003Z,16.29
2022-08-22T02:21:00.141Z,16.28
2022-08-22T02:23:51.879Z,16.29
2022-08-22T02:26:26.745Z,16.25
2022-08-22T02:29:11.670Z,16.19
2022-08-22T02:31:58.136Z,16.13
2022-08-22T02:34:39.803Z,16.11
2022-08-22T02:37:22.708Z,16.09
2022-08-22T02:40:10.406Z,16.05
2022-08-22T02:43:25.993Z,16.02
2022-08-22T02:46:27.656Z,15.99
2022-08-22T02:49:00.160Z,15.99
2022-08-22T02:52:05.294Z,15.99
2022-08-22T02:54:43.890Z,15.98
2022-08-22T02:57:23.130Z,15.96
2022-08-22T03:00:31.890Z,15.94
2022-08-22T03:03:16.772Z,15.93
2022-08-22T03:05:46.121Z,15.94
2022-08-22T03:08:25.553Z,15.93
2022-08-22T03:11:31.095Z,15.91
2022-08-22T03:14:08.209Z,15.89
2022-08-22T03:16:50.899Z,15.84
2022-08-22T03:19:44.882Z,15.80
2022-08-22T03:22:33.019Z,15.76
2022-08-22T03:25:52.413Z,15.74
2022-08-22T03:29:00.025Z,15.72
2022-08-22T03:31:32.026Z,15.70
2022-08-22T03:34:25.777Z,15.68
2022-08-22T03:37:22.156Z,15.69
2022-08-22T03:39:51.885Z,15.69
2022-08-22T03:42:53.652Z,15.71
2022-08-22T03:46:05.174Z,15.73
2022-08-22T03:48:57.195Z,15.74
2022-08-22T03:51:42.359Z,15.72
2022-08-22T03:54:43.858Z,15.69
2022-08-22T03:57:36.231Z,15.65
2022-08-22T04:00:42.765Z,15.64
2022-08-22T04:03:40.913Z,15.63
2022-08-22T04:06:32.189Z,15.63
2022-08-22T04:09:07.978Z,15.64
2022-08-22T04:12:24.834Z,15.65
2022-08-22T04:15:25.616Z,15.69
2022-08-22T04:18:21.211Z,15.72
2022-08-22T04:21:12.218Z,15.75
2022-08-22T04:23:50.259Z,15.79
2022-08-22T04:26:30.261Z,15.84
2022-08-22T04:29:03.877Z,15.89
2022-08-22T04:31:42.895Z,15.93
2022-08-22T04:34:19.066Z,15.99
2022-08-22T04:36:56.146Z,16.07
2022-08-22T04:39:36.310Z,16.15
2022-08-22T04:42:32.883Z,16.22
2022-08-22T04:45:19.924Z,16.31
2022-08-22T04:48:01.520Z,16.40
2022-08-22T04:50:51.936Z,16.50
2022-08-22T04:53:46.740Z,16.60
2022-08-22T04:56:36.213Z,16.69
2022-08-22T04:59:11.775Z,16.78
2022-08-22T05:01:47.275Z,16.87
2022-08-22T05:04:23.657Z,16.94
2022-08-22T05:06:59.084Z,17.02
2022-08-22T05:09:31.883Z,17.11
2022-08-22T05:12:09.894Z,17.20
2022-08-22T05:14:58.817Z,17.32
2022-08-22T05:17:32.550Z,17.45
2022-08-22T05:20:09.718Z,17.57
2022-08-22T05:22:44.825Z,17.67
2022-08-22T05:25:20.951Z,17.81
2022-08-22T05:27:56.367Z,17.97
2022-08-22T05:30:30.094Z,18.12
2022-08-22T05:33:14.941Z,18.30
2022-08-22T05:36:01.451Z,18.46
2022-08-22T05:38:34.945Z,18.60
2022-08-22T05:41:10.598Z,18.73
2022-08-22T05:43:43.684Z,18.82
2022-08-22T05:46:38.788Z,18.89
2022-08-22T05:49:19.349Z,19.02
2022-08-22T05:52:06.161Z,19.13
2022-08-22T05:54:49.080Z,19.23
2022-08-22T05:57:29.439Z,19.36
2022-08-22T06:00:05.097Z,19.66
2022-08-22T06:03:06.436Z,20.04
2022-08-22T06:05:43.528Z,20.57
2022-08-22T06:08:31.768Z,21.19
2022-08-22T06:11:13.156Z,21.79
2022-08-22T06:13:50.202Z,22.27
2022-08-22T06:16:48.702Z,22.80
2022-08-22T06:19:20.416Z,23.28
2022-08-22T06:21:52.740Z,23.80
2022-08-22T06:24:27.987Z,24.20
2022-08-22T06:27:05.686Z,24.62
2022-08-22T06:29:51.676Z,25.08
2022-08-22T06:32:44.489Z,25.19
2022-08-22T06:35:22.730Z,25.53
2022-08-22T06:38:00.249Z,25.91
2022-08-22T06:40:30.447Z,26.37
2022-08-22T06:43:00.021Z,26.54
2022-08-22T06:45:32.655Z,26.22
2022-08-22T06:48:08.174Z,26.56
2022-08-22T06:50:46.076Z,26.63
2022-08-22T06:53:14.561Z,26.86
2022-08-22T06:56:06.042Z,26.75
2022-08-22T06:58:40.806Z,26.73
2022-08-22T07:01:18.766Z,26.78
2022-08-22T07:03:53.026Z,26.82
2022-08-22T07:06:45.164Z,27.21
2022-08-22T07:09:40.980Z,27.29
2022-08-22T07:12:19.677Z,27.36
2022-08-22T07:14:53.510Z,27.23
2022-08-22T07:17:30.182Z,27.25
2022-08-22T07:20:38.980Z,27.02
2022-08-22T07:23:13.388Z,27.18
2022-08-22T07:26:22.951Z,27.08
2022-08-22T07:29:11.427Z,26.99
2022-08-22T07:31:56.695Z,26.70
2022-08-22T07:34:33.671Z,26.68
2022-08-22T07:37:12.704Z,26.72
2022-08-22T07:39:58.413Z,26.91
2022-08-22T07:42:45.509Z,27.68
2022-08-22T07:45:28.735Z,28.05
2022-08-22T07:48:26.161Z,27.38
2022-08-22T07:51:09.318Z,27.37
2022-08-22T07:53:45.170Z,27.27
2022-08-22T07:56:27.911Z,27.22
2022-08-22T07:59:07.989Z,27.34
2022-08-22T08:01:41.504Z,27.78
2022-08-22T08:04:15.952Z,27.98
2022-08-22T08:06:54.067Z,28.16
2022-08-22T08:09:24.054Z,28.27
2022-08-22T08:11:54.671Z,28.24
2022-08-22T08:14:25.238Z,27.92
2022-08-22T08:17:12.455Z,27.27
2022-08-22T08:19:43.561Z,27.09
2022-08-22T08:22:23.753Z,26.64
2022-08-22T08:24:56.848Z,26.44
2022-08-22T08:27:50.309Z,26.35
2022-08-22T08:30:37.018Z,26.37
2022-08-22T08:33:25.449Z,26.43
2022-08-22T08:36:11.057Z,26.50
2022-08-22T08:38:45.029Z,26.66
2022-08-22T08:41:26.445Z,26.82
2022-08-22T08:44:25.437Z,27.00
2022-08-22T08:47:32.628Z,27.16
2022-08-22T08:50:29.520Z,27.26
2022-08-22T08:53:15.771Z,27.33
2022-08-22T08:55:54.873Z,27.94
2022-08-22T08:58:46.421Z,28.58
2022-08-22T09:01:35.994Z,29.10
2022-08-22T09:04:26.083Z,29.47
2022-08-22T09:07:01.531Z,29.77
2022-08-22T09:10:06.976Z,29.82
2022-08-22T09:13:00.569Z,30.36
2022-08-22T09:16:04.976Z,30.33
2022-08-22T09:18:49.531Z,30.30
2022-08-22T09:21:52.108Z,30.62
2022-08-22T09:24:41.579Z,30.99
2022-08-22T09:27:20.605Z,31.32
2022-08-22T09:30:02.814Z,31.24
2022-08-22T09:32:44.857Z,31.16
2022-08-22T09:35:28.544Z,31.45
2022-08-22T09:38:28.051Z,31.55
2022-08-22T09:41:07.187Z,31.97
2022-08-22T09:43:43.344Z,32.30
2022-08-22T09:46:31.572Z,32.29
2022-08-22T09:49:23.831Z,32.29
2022-08-22T09:52:33.883Z,32.30
2022-08-22T09:55:34.990Z,32.84
2022-08-22T09:58:41.702Z,33.20
2022-08-22T10:01:32.597Z,33.62
2022-08-22T10:04:36.432Z,33.45
2022-08-22T10:07:31.742Z,32.87
2022-08-22T10:10:34.722Z,32.00
2022-08-22T10:13:10.495Z,31.29
2022-08-22T10:15:46.840Z,30.79
2022-08-22T10:18:26.132Z,30.36
2022-08-22T10:21:22.812Z,30.13
2022-08-22T10:24:02.356Z,29.83
2022-08-22T10:26:54.286Z,29.71
2022-08-22T10:29:53.688Z,29.76
2022-08-22T10:32:58.517Z,30.08
2022-08-22T10:35:34.312Z,30.41
2022-08-22T10:38:28.659Z,30.77
2022-08-22T10:41:22.845Z,31.33
2022-08-22T10:44:04.167Z,31.48
2022-08-22T10:46:47.145Z,31.22
2022-08-22T10:49:28.274Z,31.04
2022-08-22T10:52:24.456Z,30.84
2022-08-22T10:55:00.984Z,30.72
2022-08-22T10:58:08.008Z,30.74
2022-08-22T11:00:49.761Z,31.24
2022-08-22T11:03:38.441Z,31.44
2022-08-22T11:06:14.516Z,31.95
2022-08-22T11:09:20.275Z,32.46
2022-08-22T11:11:56.428Z,32.95
2022-08-22T11:14:43.244Z,33.45
2022-08-22T11:17:28.886Z,33.91
2022-08-22T11:20:17.181Z,34.43
2022-08-22T11:23:13.089Z,35.10
2022-08-22T11:25:53.889Z,35.12
2022-08-22T11:29:02.789Z,34.29
2022-08-22T11:32:24.522Z,33.50
2022-08-22T11:35:04.659Z,32.41
2022-08-22T11:37:51.268Z,31.66
2022-08-22T11:40:42.065Z,31.14
2022-08-22T11:43:38.212Z,30.74
2022-08-22T11:46:25.529Z,30.42
2022-08-22T11:49:26.794Z,30.25
2022-08-22T11:52:02.019Z,30.60
2022-08-22T11:54:38.906Z,31.38
2022-08-22T11:57:22.022Z,32.12
2022-08-22T12:00:14.554Z,32.60
2022-08-22T12:03:28.314Z,32.56
2022-08-22T12:06:18.505Z,32.08
2022-08-22T12:08:49.855Z,31.85
2022-08-22T12:11:24.063Z,31.41
2022-08-22T12:14:02.440Z,31.10
2022-08-22T12:16:41.201Z,30.71
2022-08-22T12:19:58.819Z,30.28
2022-08-22T12:23:06.278Z,30.04
2022-08-22T12:25:57.952Z,29.70
2022-08-22T12:28:56.538Z,29.69
2022-08-22T12:32:02.731Z,30.07
2022-08-22T12:34:41.651Z,30.38
2022-08-22T12:37:26.497Z,31.24
2022-08-22T12:40:18.354Z,32.09
2022-08-22T12:43:08.407Z,32.27
2022-08-22T12:45:51.025Z,32.01
2022-08-22T12:48:37.831Z,31.79
2022-08-22T12:51:42.251Z,31.76
2022-08-22T12:54:32.343Z,31.90
2022-08-22T12:57:43.218Z,32.10
2022-08-22T13:00:26.811Z,32.10
2022-08-22T13:03:22.364Z,31.54
2022-08-22T13:06:00.314Z,31.27
2022-08-22T13:08:35.714Z,31.16
2022-08-22T13:11:23.037Z,31.11
2022-08-22T13:14:01.509Z,30.94
2022-08-22T13:16:49.079Z,30.70
2022-08-22T13:19:24.936Z,30.50
2022-08-22T13:22:10.522Z,30.21
2022-08-22T13:24:52.610Z,29.90
2022-08-22T13:27:50.568Z,29.76
2022-08-22T13:30:22.749Z,29.76
2022-08-22T13:32:55.532Z,29.69
2022-08-22T13:35:32.716Z,29.45
2022-08-22T13:38:09.162Z,29.33
2022-08-22T13:40:48.014Z,29.16
2022-08-22T13:43:24.377Z,29.07
2022-08-22T13:46:01.850Z,29.12
2022-08-22T13:48:54.844Z,29.26
2022-08-22T13:51:36.201Z,29.40
2022-08-22T13:54:15.850Z,29.45
2022-08-22T13:57:19.244Z,29.36
2022-08-22T14:00:31.961Z,29.14
2022-08-22T14:03:08.230Z,29.19
2022-08-22T14:05:48.585Z,29.34
2022-08-22T14:08:26.897Z,29.52
2022-08-22T14:11:07.040Z,29.69
2022-08-22T14:14:00.724Z,29.53
2022-08-22T14:16:54.803Z,29.30
2022-08-22T14:19:30.755Z,29.13
2022-08-22T14:22:14.358Z,28.95
2022-08-22T14:24:55.491Z,29.12
2022-08-22T14:27:58.230Z,28.92
2022-08-22T14:30:34.927Z,28.83
2022-08-22T14:33:32.796Z,28.86
2022-08-22T14:36:13.779Z,29.00
2022-08-22T14:38:52.187Z,28.90
2022-08-22T14:41:52.578Z,28.91
2022-08-22T14:45:01.235Z,29.14
2022-08-22T14:48:14.233Z,29.25
2022-08-22T14:50:57.056Z,29.19
2022-08-22T14:53:32.524Z,29.24
2022-08-22T14:56:13.604Z,29.34
2022-08-22T14:58:51.071Z,29.52
2022-08-22T15:01:22.575Z,29.66
2022-08-22T15:04:10.245Z,29.66
2022-08-22T15:06:51.459Z,29.61
2022-08-22T15:09:41.533Z,29.59
2022-08-22T15:12:29.580Z,29.52
2022-08-22T15:15:11.171Z,29.00
2022-08-22T15:17:44.819Z,27.84
2022-08-22T15:20:22.761Z,26.70
2022-08-22T15:23:15.346Z,25.72
2022-08-22T15:25:46.991Z,25.02
2022-08-22T15:28:20.870Z,24.48
2022-08-22T15:31:03.751Z,24.04
2022-08-22T15:33:43.307Z,23.80
2022-08-22T15:36:24.721Z,23.54
2022-08-22T15:39:33.910Z,23.38
2022-08-22T15:42:04.158Z,23.06
2022-08-22T15:44:37.883Z,22.80
2022-08-22T15:47:39.838Z,22.54
2022-08-22T15:50:14.698Z,22.34
2022-08-22T15:53:11.835Z,22.14
2022-08-22T15:56:05.043Z,21.95
2022-08-22T15:58:48.752Z,21.86
2022-08-22T16:01:25.831Z,21.82
2022-08-22T16:04:00.642Z,21.74
2022-08-22T16:07:05.461Z,21.63
2022-08-22T16:09:48.699Z,21.53
2022-08-22T16:12:29.165Z,21.43
2022-08-22T16:14:59.999Z,21.37
2022-08-22T16:17:28.684Z,21.35
2022-08-22T16:20:19.211Z,21.29
2022-08-22T16:22:58.005Z,21.23
2022-08-22T16:25:53.291Z,21.18
2022-08-22T16:28:58.296Z,21.14
2022-08-22T16:31:40.144Z,21.09
2022-08-22T16:34:17.639Z,21.05
2022-08-22T16:37:19.909Z,20.98
2022-08-22T16:39:50.358Z,20.89
2022-08-22T16:42:26.395Z,20.82
2022-08-22T16:45:05.414Z,20.75
2022-08-22T16:47:34.621Z,20.69
2022-08-22T16:50:09.770Z,20.65
2022-08-22T16:52:39.412Z,20.61
2022-08-22T16:55:29.454Z,20.59
2022-08-22T16:58:19.228Z,20.55
2022-08-22T17:01:45.531Z,20.54
2022-08-22T17:04:19.986Z,20.54
2022-08-22T17:07:00.548Z,20.48
2022-08-22T17:09:47.768Z,20.36
2022-08-22T17:12:32.037Z,20.24
2022-08-22T17:15:28.662Z,20.08
2022-08-22T17:18:12.156Z,19.94
2022-08-22T17:21:00.747Z,19.83
2022-08-22T17:23:39.572Z,19.74
2022-08-22T17:26:26.692Z,19.67
2022-08-22T17:29:21.039Z,19.56
2022-08-22T17:32:02.361Z,19.40
2022-08-22T17:34:43.536Z,19.30
2022-08-22T17:37:41.512Z,19.22
2022-08-22T17:40:17.512Z,19.15
2022-08-22T17:42:49.638Z,19.07
2022-08-22T17:45:58.570Z,19.06
2022-08-22T17:48:34.542Z,19.08
2022-08-22T17:51:18.868Z,19.09
2022-08-22T17:53:51.467Z,19.11
2022-08-22T17:56:26.891Z,19.12
2022-08-22T17:59:04.902Z,19.11
2022-08-22T18:01:55.397Z,19.12
2022-08-22T18:04:27.355Z,19.11
2022-08-22T18:07:19.908Z,19.06
2022-08-22T18:09:52.374Z,19.01
2022-08-22T18:12:31.182Z,18.94
2022-08-22T18:15:09.657Z,18.86
2022-08-22T18:17:47.712Z,18.80
2022-08-22T18:20:23.502Z,18.77
2022-08-22T18:23:01.336Z,18.72
2022-08-22T18:25:39.577Z,18.69
2022-08-22T18:28:33.964Z,18.64
2022-08-22T18:31:20.675Z,18.57
2022-08-22T18:33:58.069Z,18.52
2022-08-22T18:36:34.429Z,18.50
2022-08-22T18:39:07.213Z,18.49
2022-08-22T18:41:47.978Z,18.47
2022-08-22T18:44:39.340Z,18.45
2022-08-22T18:47:36.858Z,18.40
2022-08-22T18:50:27.365Z,18.33
2022-08-22T18:52:57.839Z,18.32
2022-08-22T18:55:51.863Z,18.32
2022-08-22T18:59:05.405Z,18.33
2022-08-22T19:01:55.913Z,18.32
2022-08-22T19:04:44.450Z,18.28
2022-08-22T19:07:37.202Z,18.23
2022-08-22T19:10:06.191Z,18.16
2022-08-22T19:12:47.573Z,18.09
2022-08-22T19:15:23.945Z,18.02
2022-08-22T19:18:12.796Z,17.97
2022-08-22T19:21:01.043Z,17.92
2022-08-22T19:23:51.036Z,17.86
2022-08-22T19:26:31.489Z,17.80
2022-08-22T19:29:02.221Z,17.71
2022-08-22T19:31:37.665Z,17.65
2022-08-22T19:34:32.468Z,17.63
2022-08-22T19:37:31.762Z,17.62
2022-08-22T19:40:02.253Z,17.57
2022-08-22T19:42:37.342Z,17.53
2022-08-22T19:45:17.997Z,17.52
2022-08-22T19:47:57.642Z,17.50
2022-08-22T19:50:33.116Z,17.48
2022-08-22T19:53:34.234Z,17.47
2022-08-22T19:56:47.054Z,17.47
2022-08-22T19:59:32.232Z,17.45
2022-08-22T20:02:00.909Z,17.44
2022-08-22T20:04:55.397Z,17.44
2022-08-22T20:07:42.722Z,17.45
2022-08-22T20:10:21.264Z,17.44
2022-08-22T20:13:07.609Z,17.42
2022-08-22T20:16:04.185Z,17.41
2022-08-22T20:19:06.441Z,17.38
2022-08-22T20:21:54.013Z,17.35
2022-08-22T20:24:41.916Z,17.30
2022-08-22T20:27:15.900Z,17.25
2022-08-22T20:29:50.244Z,17.23
2022-08-22T20:32:23.406Z,17.25
2022-08-22T20:34:59.493Z,17.28
2022-08-22T20:38:02.876Z,17.30
2022-08-22T20:40:56.542Z,17.37
2022-08-22T20:43:32.314Z,17.41
2022-08-22T20:46:07.350Z,17.43
2022-08-22T20:48:43.302Z,17.46
2022-08-22T20:51:16.304Z,17.49
2022-08-22T20:53:52.331Z,17.52
2022-08-22T20:56:36.036Z,17.55
2022-08-22T20:59:27.718Z,17.59
2022-08-22T21:02:39.002Z,17.64
2022-08-22T21:05:13.824Z,17.61
2022-08-22T21:07:49.762Z,17.52
2022-08-22T21:10:39.354Z,17.41
2022-08-22T21:13:12.544Z,17.30
2022-08-22T21:16:00.589Z,17.25
2022-08-22T21:18:38.492Z,17.24
2022-08-22T21:21:33.348Z,17.22
2022-08-22T21:24:06.982Z,17.24
2022-08-22T21:26:46.941Z,17.27
2022-08-22T21:29:15.527Z,17.31
2022-08-22T21:31:49.332Z,17.35
2022-08-22T21:34:32.457Z,17.39
2022-08-22T21:37:17.322Z,17.41
2022-08-22T21:40:01.002Z,17.42
2022-08-22T21:42:42.234Z,17.44
2022-08-22T21:45:28.907Z,17.46
2022-08-22T21:47:59.025Z,17.49
2022-08-22T21:50:38.438Z,17.52
2022-08-22T21:53:13.145Z,17.55
2022-08-22T21:55:47.197Z,17.55
2022-08-22T21:58:32.594Z,17.51
2022-08-22T22:01:32.457Z,17.45
2022-08-22T22:04:01.420Z,17.44
2022-08-22T22:06:30.215Z,17.45
2022-08-22T22:08:58.899Z,17.45
2022-08-22T22:11:27.790Z,17.46
2022-08-22T22:13:56.785Z,17.48
2022-08-22T22:16:28.456Z,17.51
2022-08-22T22:18:57.638Z,17.54
2022-08-22T22:21:26.325Z,17.55
2022-08-22T22:23:58.613Z,17.55
2022-08-22T22:26:29.365Z,17.53
2022-08-22T22:28:59.470Z,17.50
2022-08-22T22:31:28.743Z,17.47
2022-08-22T22:33:58.732Z,17.42
2022-08-22T22:36:28.988Z,17.39
2022-08-22T22:38:57.973Z,17.36
2022-08-22T22:41:26.666Z,17.33
2022-08-22T22:43:56.162Z,17.30
2022-08-22T22:46:27.310Z,17.28
2022-08-22T22:48:58.154Z,17.25
2022-08-22T22:51:27.348Z,17.22
2022-08-22T22:53:58.803Z,17.17
2022-08-22T22:56:28.003Z,17.12
2022-08-22T22:59:00.835Z,17.07
2022-08-22T23:02:04.014Z,17.03
2022-08-22T23:04:34.515Z,16.98
2022-08-22T23:07:04.496Z,16.96
2022-08-22T23:09:38.515Z,16.93
2022-08-22T23:12:15.811Z,16.92
2022-08-22T23:14:44.596Z,16.90
2022-08-22T23:17:14.352Z,16.88
2022-08-22T23:19:43.815Z,16.83
2022-08-22T23:22:15.364Z,16.76
2022-08-22T23:24:44.465Z,16.70
2022-08-22T23:27:15.296Z,16.63
2022-08-22T23:29:45.135Z,16.57
2022-08-22T23:32:16.928Z,16.52
2022-08-22T23:34:49.055Z,16.49
2022-08-22T23:37:21.505Z,16.46
2022-08-22T23:39:51.023Z,16.42
2022-08-22T23:42:20.540Z,16.40
2022-08-22T23:44:50.039Z,16.38
2022-08-22T23:47:19.742Z,16.36
2022-08-22T23:49:49.295Z,16.32
2022-08-22T23:52:18.660Z,16.27
2022-08-22T23:54:48.651Z,16.24
2022-08-22T23:57:27.335Z,16.23
2022-08-22T23:59:57.609Z,16.22
